Cortland, Indiana
Current Conditions -  °F | °C
As of 9:47 PM on Sunday 23 Nov 2014 (Local Time) from KBAK Reporting Station
Light Rain Light Rain  
Wind Chill: 55°   Ceiling: 1200
Heat Index: 55°   Visibility: 5mi
Dew Point: 55°   Wind: 21mph
Humidity: 100%   Direction: 160°SSE
Pressure: 29.24"   Gusts: 25mph
Location:  38.97°N, 85.96°W
Report Text: KBAK 240247Z 16018G22KT 5SM -RABR OVC012 13/13 A2924
Loading
Personal Weather Stations






























Interactive Weather Map New forecast layout! Learn more

10-Day Weather Forecast

Advertisements
Track Severe Weather on mobile